createdAt,value
2023-01-04T00:01:23.675Z,98611.41
2023-01-04T00:03:51.665Z,98604.88
2023-01-04T00:06:19.809Z,98600.53
2023-01-04T00:08:47.215Z,98610.72
2023-01-04T00:11:20.490Z,98598.09
2023-01-04T00:13:53.607Z,98599.53
2023-01-04T00:16:24.644Z,98602.00
2023-01-04T00:18:54.192Z,98598.63
2023-01-04T00:21:28.155Z,98586.75
2023-01-04T00:23:59.416Z,98593.00
2023-01-04T00:26:32.834Z,98591.59
2023-01-04T00:29:07.111Z,98592.72
2023-01-04T00:31:35.081Z,98585.53
2023-01-04T00:34:05.500Z,98590.44
2023-01-04T00:36:34.563Z,98588.88
2023-01-04T00:39:09.957Z,98579.63
2023-01-04T00:42:00.918Z,98577.16
2023-01-04T00:44:30.069Z,98586.19
2023-01-04T00:46:58.731Z,98583.66
2023-01-04T00:49:27.686Z,98587.38
2023-01-04T00:51:55.691Z,98586.41
2023-01-04T00:54:23.306Z,98578.50
2023-01-04T00:56:52.035Z,98593.44
2023-01-04T00:59:21.516Z,98589.56
2023-01-04T01:01:49.068Z,98590.06
2023-01-04T01:04:20.149Z,98583.78
2023-01-04T01:06:48.281Z,98588.63
2023-01-04T01:09:16.325Z,98582.72
2023-01-04T01:11:43.820Z,98582.72
2023-01-04T01:14:22.707Z,98586.34
2023-01-04T01:16:58.642Z,98584.72
2023-01-04T01:19:28.911Z,98589.19
2023-01-04T01:21:58.240Z,98592.91
2023-01-04T01:24:26.340Z,98597.88
2023-01-04T01:26:53.709Z,98591.16
2023-01-04T01:29:21.108Z,98593.59
2023-01-04T01:31:48.343Z,98596.09
2023-01-04T01:34:15.826Z,98600.16
2023-01-04T01:36:43.025Z,98603.03
2023-01-04T01:39:10.297Z,98597.53
2023-01-04T01:41:37.549Z,98597.66
2023-01-04T01:44:12.584Z,98597.22
2023-01-04T01:46:39.810Z,98591.72
2023-01-04T01:49:31.467Z,98594.16
2023-01-04T01:52:04.191Z,98594.59
2023-01-04T01:54:57.148Z,98585.25
2023-01-04T01:57:28.892Z,98585.69
2023-01-04T02:00:02.213Z,98588.88
2023-01-04T02:03:16.582Z,98598.94
2023-01-04T02:05:47.093Z,98590.81
2023-01-04T02:08:16.332Z,98592.81
2023-01-04T02:10:43.624Z,98596.75
2023-01-04T02:13:15.708Z,98595.78
2023-01-04T02:16:18.648Z,98597.00
2023-01-04T02:19:22.600Z,98590.38
2023-01-04T02:22:25.320Z,98591.09
2023-01-04T02:25:26.370Z,98594.03
2023-01-04T02:28:09.865Z,98581.91
2023-01-04T02:31:14.252Z,98579.84
2023-01-04T02:33:49.976Z,98576.06
2023-01-04T02:36:37.826Z,98576.72
2023-01-04T02:39:35.316Z,98571.03
2023-01-04T02:43:15.904Z,98565.19
2023-01-04T02:45:54.822Z,98566.88
2023-01-04T02:48:40.787Z,98560.84
2023-01-04T02:51:32.185Z,98559.22
2023-01-04T02:54:10.710Z,98562.28
2023-01-04T02:57:19.429Z,98555.34
2023-01-04T03:00:16.934Z,98552.25
2023-01-04T03:03:20.489Z,98556.00
2023-01-04T03:06:31.321Z,98554.66
2023-01-04T03:09:08.387Z,98543.97
2023-01-04T03:12:10.180Z,98539.63
2023-01-04T03:14:55.053Z,98540.84
2023-01-04T03:17:24.913Z,98533.16
2023-01-04T03:19:55.578Z,98535.59
2023-01-04T03:22:59.063Z,98534.78
2023-01-04T03:26:00.294Z,98535.13
2023-01-04T03:28:52.719Z,98528.94
2023-01-04T03:31:47.781Z,98518.88
2023-01-04T03:34:33.816Z,98518.88
2023-01-04T03:37:36.314Z,98520.28
2023-01-04T03:40:29.580Z,98524.22
2023-01-04T03:43:31.287Z,98518.09
2023-01-04T03:46:36.859Z,98512.19
2023-01-04T03:49:39.349Z,98507.69
2023-01-04T03:52:09.451Z,98507.88
2023-01-04T03:54:48.104Z,98508.56
2023-01-04T03:57:16.795Z,98503.00
2023-01-04T03:59:55.251Z,98506.72
2023-01-04T04:02:30.519Z,98498.81
2023-01-04T04:05:16.621Z,98495.59
2023-01-04T04:08:02.651Z,98491.09
2023-01-04T04:10:29.999Z,98490.63
2023-01-04T04:12:57.195Z,98485.97
2023-01-04T04:15:24.365Z,98493.88
2023-01-04T04:17:51.549Z,98487.41
2023-01-04T04:20:18.816Z,98490.34
2023-01-04T04:22:46.129Z,98482.41
2023-01-04T04:25:13.353Z,98484.16
2023-01-04T04:27:40.674Z,98485.63
2023-01-04T04:30:08.732Z,98492.38
2023-01-04T04:32:36.000Z,98488.91
2023-01-04T04:35:03.277Z,98490.78
2023-01-04T04:37:32.167Z,98493.66
2023-01-04T04:39:59.725Z,98483.00
2023-01-04T04:42:27.118Z,98476.25
2023-01-04T04:44:54.281Z,98474.47
2023-01-04T04:47:21.624Z,98472.94
2023-01-04T04:49:48.874Z,98463.22
2023-01-04T04:52:16.138Z,98465.50
2023-01-04T04:54:43.292Z,98459.84
2023-01-04T04:57:10.516Z,98445.72
2023-01-04T04:59:37.804Z,98444.38
2023-01-04T05:02:05.165Z,98448.16
2023-01-04T05:04:32.567Z,98442.50
2023-01-04T05:06:59.759Z,98451.56
2023-01-04T05:09:27.087Z,98445.91
2023-01-04T05:12:12.708Z,98438.44
2023-01-04T05:14:39.871Z,98440.69
2023-01-04T05:17:07.037Z,98444.16
2023-01-04T05:19:34.283Z,98438.06
2023-01-04T05:22:01.499Z,98434.13
2023-01-04T05:24:29.338Z,98430.19
2023-01-04T05:26:56.601Z,98428.09
2023-01-04T05:29:42.490Z,98432.41
2023-01-04T05:32:09.721Z,98431.28
2023-01-04T05:34:36.993Z,98421.03
2023-01-04T05:37:04.245Z,98420.31
2023-01-04T05:39:31.439Z,98416.25
2023-01-04T05:42:17.495Z,98418.25
2023-01-04T05:44:44.671Z,98422.78
2023-01-04T05:47:15.019Z,98408.88
2023-01-04T05:49:43.020Z,98414.44
2023-01-04T05:52:10.952Z,98406.91
2023-01-04T05:54:38.160Z,98406.47
2023-01-04T05:57:05.728Z,98408.06
2023-01-04T05:59:37.254Z,98397.38
2023-01-04T06:02:22.491Z,98399.53
2023-01-04T06:04:58.067Z,98397.09
2023-01-04T06:07:25.599Z,98395.38
2023-01-04T06:09:52.912Z,98393.44
2023-01-04T06:12:20.458Z,98394.22
2023-01-04T06:14:47.708Z,98398.44
2023-01-04T06:17:14.940Z,98402.25
2023-01-04T06:19:42.304Z,98402.03
2023-01-04T06:22:09.564Z,98394.63
2023-01-04T06:24:36.822Z,98407.13
2023-01-04T06:27:04.411Z,98407.72
2023-01-04T06:29:31.668Z,98397.59
2023-01-04T06:31:59.010Z,98396.16
2023-01-04T06:34:30.859Z,98389.06
2023-01-04T06:36:59.193Z,98386.50
2023-01-04T06:39:26.428Z,98395.31
2023-01-04T06:41:53.780Z,98396.16
2023-01-04T06:44:21.345Z,98397.78
2023-01-04T06:46:48.561Z,98398.47
2023-01-04T06:49:15.729Z,98396.13
2023-01-04T06:51:43.008Z,98389.81
2023-01-04T06:54:14.415Z,98385.13
2023-01-04T06:56:42.001Z,98383.97
2023-01-04T06:59:09.691Z,98375.78
2023-01-04T07:01:36.997Z,98377.97
2023-01-04T07:04:04.425Z,98383.22
2023-01-04T07:06:31.792Z,98373.91
2023-01-04T07:08:58.979Z,98369.91
2023-01-04T07:11:26.133Z,98372.19
2023-01-04T07:13:53.492Z,98376.22
2023-01-04T07:16:20.915Z,98379.09
2023-01-04T07:18:48.181Z,98371.56
2023-01-04T07:21:15.515Z,98375.78
2023-01-04T07:23:42.751Z,98371.84
2023-01-04T07:26:10.045Z,98373.91
2023-01-04T07:29:15.552Z,98372.47
2023-01-04T07:31:46.371Z,98374.63
2023-01-04T07:34:14.923Z,98385.66
2023-01-04T07:36:42.284Z,98387.91
2023-01-04T07:39:11.841Z,98382.34
2023-01-04T07:41:43.742Z,98382.25
2023-01-04T07:44:12.450Z,98376.88
2023-01-04T07:46:40.906Z,98383.47
2023-01-04T07:49:17.402Z,98384.16
2023-01-04T07:51:49.576Z,98375.19
2023-01-04T07:54:18.212Z,98382.88
2023-01-04T07:56:47.570Z,98380.91
2023-01-04T07:59:18.839Z,98390.81
2023-01-04T08:01:46.407Z,98383.50
2023-01-04T08:04:15.832Z,98385.38
2023-01-04T08:06:46.846Z,98387.72
2023-01-04T08:09:14.449Z,98381.09
2023-01-04T08:11:41.955Z,98386.56
2023-01-04T08:14:09.427Z,98381.59
2023-01-04T08:16:40.092Z,98387.97
2023-01-04T08:19:18.407Z,98390.81
2023-01-04T08:21:46.596Z,98392.00
2023-01-04T08:24:19.730Z,98399.41
2023-01-04T08:26:47.530Z,98389.44
2023-01-04T08:29:15.069Z,98383.75
2023-01-04T08:31:42.396Z,98376.56
2023-01-04T08:34:10.418Z,98375.22
2023-01-04T08:36:50.448Z,98376.53
2023-01-04T08:39:17.736Z,98375.13
2023-01-04T08:42:04.276Z,98373.94
2023-01-04T08:44:38.301Z,98364.63
2023-01-04T08:47:07.373Z,98371.16
2023-01-04T08:49:34.746Z,98362.91
2023-01-04T08:52:02.215Z,98364.34
2023-01-04T08:54:29.389Z,98368.13
2023-01-04T08:56:56.598Z,98369.69
2023-01-04T08:59:23.920Z,98366.41
2023-01-04T09:01:51.217Z,98366.13
2023-01-04T09:04:18.521Z,98359.38
2023-01-04T09:06:45.841Z,98355.72
2023-01-04T09:09:14.360Z,98366.50
2023-01-04T09:11:41.620Z,98356.28
2023-01-04T09:14:10.534Z,98356.19
2023-01-04T09:16:38.644Z,98347.31
2023-01-04T09:19:06.647Z,98348.00
2023-01-04T09:21:33.913Z,98341.03
2023-01-04T09:24:01.264Z,98339.47
2023-01-04T09:26:28.526Z,98330.56
2023-01-04T09:28:57.345Z,98322.34
2023-01-04T09:31:28.291Z,98316.38
2023-01-04T09:34:15.312Z,98312.81
2023-01-04T09:36:44.284Z,98309.72
2023-01-04T09:39:20.463Z,98295.47
2023-01-04T09:42:37.041Z,98295.09
2023-01-04T09:45:26.584Z,98284.09
2023-01-04T09:48:24.974Z,98286.84
2023-01-04T09:51:02.598Z,98293.97
2023-01-04T09:54:03.528Z,98287.50
2023-01-04T09:56:36.103Z,98281.78
2023-01-04T09:59:10.978Z,98270.78
2023-01-04T10:01:54.144Z,98258.19
2023-01-04T10:04:36.703Z,98258.19
2023-01-04T10:07:05.341Z,98235.06
2023-01-04T10:09:33.935Z,98240.09
2023-01-04T10:12:30.453Z,98225.69
2023-01-04T10:15:18.962Z,98214.25
2023-01-04T10:21:33.397Z,98217.00
2023-01-04T10:24:46.422Z,98222.03
2023-01-04T10:27:43.208Z,98200.88
2023-01-04T10:30:48.859Z,98198.69
2023-01-04T10:33:55.912Z,98199.88
2023-01-04T10:36:31.522Z,98181.25
2023-01-04T10:39:09.724Z,98177.53
2023-01-04T10:41:44.563Z,98156.94
2023-01-04T10:44:22.671Z,98149.09
2023-01-04T10:47:32.616Z,98148.16
2023-01-04T10:50:08.735Z,98142.63
2023-01-04T10:52:51.588Z,98138.00
2023-01-04T10:55:47.055Z,98135.31
2023-01-04T10:58:42.639Z,98142.97
2023-01-04T11:01:33.041Z,98141.28
2023-01-04T11:04:25.812Z,98130.28
2023-01-04T11:07:08.149Z,98136.50
2023-01-04T11:10:00.894Z,98127.41
2023-01-04T11:12:28.209Z,98123.28
2023-01-04T11:14:55.444Z,98117.44
2023-01-04T11:17:25.105Z,98119.50
2023-01-04T11:19:54.038Z,98115.94
2023-01-04T11:22:31.685Z,98105.06
2023-01-04T11:28:08.642Z,98100.69
2023-01-04T11:31:13.226Z,98085.59
2023-01-04T11:34:02.441Z,98073.63
2023-01-04T11:36:35.779Z,98062.88
2023-01-04T11:39:05.770Z,98058.22
2023-01-04T11:41:33.409Z,98059.22
2023-01-04T11:44:06.973Z,98048.44
2023-01-04T11:46:35.292Z,98033.66
2023-01-04T11:49:02.694Z,98033.78
2023-01-04T11:51:29.890Z,98033.88
2023-01-04T11:54:05.751Z,98031.22
2023-01-04T11:56:36.458Z,98029.41
2023-01-04T11:59:09.327Z,98016.03
2023-01-04T12:01:42.142Z,98005.50
2023-01-04T12:04:30.527Z,98002.22
2023-01-04T12:07:18.786Z,97992.25
2023-01-04T12:09:46.046Z,97993.53
2023-01-04T12:12:16.034Z,98004.97
2023-01-04T12:14:49.860Z,98004.41
2023-01-04T12:17:41.330Z,97994.53
2023-01-04T12:20:21.681Z,97995.72
2023-01-04T12:22:48.940Z,97987.53
2023-01-04T12:25:28.151Z,97986.16
2023-01-04T12:27:55.755Z,97980.09
2023-01-04T12:30:44.577Z,97976.91
2023-01-04T12:33:30.191Z,97970.00
2023-01-04T12:36:13.744Z,97961.78
2023-01-04T12:38:56.169Z,97964.16
2023-01-04T12:42:00.435Z,97951.75
2023-01-04T12:44:36.844Z,97950.19
2023-01-04T12:47:39.262Z,97945.94
2023-01-04T12:50:27.649Z,97942.22
2023-01-04T12:53:20.057Z,97926.91
2023-01-04T12:55:54.426Z,97927.84
2023-01-04T13:01:28.859Z,97906.31
2023-01-04T13:04:29.343Z,97901.06
2023-01-04T13:07:10.256Z,97892.41
2023-01-04T13:10:00.974Z,97888.16
2023-01-04T13:12:59.521Z,97876.69
2023-01-04T13:16:06.775Z,97886.59
2023-01-04T13:18:58.822Z,97885.06
2023-01-04T13:21:55.643Z,97874.13
2023-01-04T13:24:32.603Z,97872.53
2023-01-04T13:27:18.997Z,97873.69
2023-01-04T13:29:48.331Z,97874.94
2023-01-04T13:32:29.362Z,97875.66
2023-01-04T13:35:15.136Z,97861.78
2023-01-04T13:37:51.081Z,97868.91
2023-01-04T13:40:36.118Z,97862.41
2023-01-04T13:43:15.457Z,97856.75
2023-01-04T13:46:03.782Z,97858.91
2023-01-04T13:48:40.702Z,97856.75
2023-01-04T13:51:29.109Z,97846.31
2023-01-04T13:54:02.398Z,97844.25
2023-01-04T13:56:33.166Z,97846.97
2023-01-04T13:59:01.263Z,97837.31
2023-01-04T14:01:44.758Z,97831.63
2023-01-04T14:04:33.849Z,97828.22
2023-01-04T14:07:01.974Z,97828.50
2023-01-04T14:09:35.629Z,97831.38
2023-01-04T14:12:20.571Z,97835.22
2023-01-04T14:15:00.579Z,97838.75
2023-01-04T14:17:51.629Z,97831.88
2023-01-04T14:20:24.998Z,97826.22
2023-01-04T14:22:58.061Z,97835.16
2023-01-04T14:25:34.617Z,97821.59
2023-01-04T14:28:24.600Z,97814.72
2023-01-04T14:31:00.278Z,97810.34
2023-01-04T14:33:37.022Z,97810.13
2023-01-04T14:36:07.496Z,97793.66
2023-01-04T14:38:58.423Z,97788.09
2023-01-04T14:41:31.307Z,97776.13
2023-01-04T14:44:01.607Z,97753.72
2023-01-04T14:46:31.790Z,97741.59
2023-01-04T14:48:59.841Z,97745.75
2023-01-04T14:51:48.705Z,97746.63
2023-01-04T14:54:23.916Z,97756.34
2023-01-04T14:56:54.034Z,97744.69
2023-01-04T14:59:24.242Z,97742.38
2023-01-04T15:01:57.146Z,97729.94
2023-01-04T15:04:25.485Z,97724.50
2023-01-04T15:07:01.396Z,97713.66
2023-01-04T15:09:29.546Z,97705.78
2023-01-04T15:11:57.429Z,97710.38
2023-01-04T15:14:25.063Z,97711.66
2023-01-04T15:16:52.422Z,97711.78
2023-01-04T15:19:19.712Z,97708.31
2023-01-04T15:21:47.310Z,97704.97
2023-01-04T15:24:14.892Z,97702.41
2023-01-04T15:26:43.668Z,97702.41
2023-01-04T15:29:11.116Z,97695.03
2023-01-04T15:31:40.110Z,97709.53
2023-01-04T15:34:10.188Z,97716.16
2023-01-04T15:36:41.015Z,97713.00
2023-01-04T15:39:12.766Z,97685.88
2023-01-04T15:41:59.041Z,97678.75
2023-01-04T15:44:26.906Z,97677.75
2023-01-04T15:46:55.108Z,97672.78
2023-01-04T15:49:22.549Z,97678.09
2023-01-04T15:51:49.955Z,97675.72
2023-01-04T15:54:21.839Z,97689.06
2023-01-04T15:56:49.759Z,97693.03
2023-01-04T15:59:17.502Z,97687.19
2023-01-04T16:01:45.669Z,97684.97
2023-01-04T16:04:13.106Z,97685.88
2023-01-04T16:06:41.029Z,97670.28
2023-01-04T16:09:08.616Z,97669.69
2023-01-04T16:11:36.182Z,97662.31
2023-01-04T16:14:03.852Z,97661.69
2023-01-04T16:16:33.001Z,97655.38
2023-01-04T16:19:02.111Z,97653.84
2023-01-04T16:21:31.621Z,97654.41
2023-01-04T16:24:07.247Z,97652.94
2023-01-04T16:26:44.646Z,97648.34
2023-01-04T16:29:13.217Z,97662.50
2023-01-04T16:31:42.876Z,97650.47
2023-01-04T16:34:15.358Z,97664.44
2023-01-04T16:36:42.709Z,97670.28
2023-01-04T16:39:09.907Z,97645.81
2023-01-04T16:41:37.217Z,97645.63
2023-01-04T16:44:05.742Z,97656.41
2023-01-04T16:46:37.702Z,97643.03
2023-01-04T16:49:15.018Z,97637.38
2023-01-04T16:51:47.361Z,97619.38
2023-01-04T16:54:17.797Z,97611.97
2023-01-04T16:56:49.307Z,97619.56
2023-01-04T16:59:19.127Z,97613.81
2023-01-04T17:01:57.383Z,97613.13
2023-01-04T17:04:25.506Z,97604.50
2023-01-04T17:06:55.014Z,97596.59
2023-01-04T17:09:22.547Z,97579.00
2023-01-04T17:15:00.819Z,97585.78
2023-01-04T17:17:34.629Z,97579.13
2023-01-04T17:20:01.877Z,97574.13
2023-01-04T17:22:33.976Z,97565.06
2023-01-04T17:25:02.307Z,97568.00
2023-01-04T17:27:29.473Z,97566.22
2023-01-04T17:29:56.615Z,97566.16
2023-01-04T17:32:23.930Z,97548.97
2023-01-04T17:34:51.936Z,97527.63
2023-01-04T17:37:19.268Z,97529.38
2023-01-04T17:39:46.524Z,97518.72
2023-01-04T17:42:13.737Z,97524.06
2023-01-04T17:44:40.971Z,97523.94
2023-01-04T17:47:08.206Z,97525.03
2023-01-04T17:49:35.588Z,97525.41
2023-01-04T17:52:02.841Z,97535.88
2023-01-04T17:54:30.254Z,97529.06
2023-01-04T17:56:57.954Z,97520.53
2023-01-04T17:59:25.380Z,97527.09
2023-01-04T18:01:52.823Z,97528.88
2023-01-04T18:04:20.730Z,97521.84
2023-01-04T18:06:47.923Z,97515.09
2023-01-04T18:09:18.601Z,97521.88
2023-01-04T18:11:49.496Z,97505.69
2023-01-04T18:14:16.736Z,97515.13
2023-01-04T18:16:57.427Z,97517.44
2023-01-04T18:19:28.390Z,97504.84
2023-01-04T18:21:56.491Z,97481.66
2023-01-04T18:24:39.749Z,97481.34
2023-01-04T18:27:23.226Z,97476.06
2023-01-04T18:29:52.922Z,97466.44
2023-01-04T18:32:21.289Z,97439.25
2023-01-04T18:34:48.617Z,97450.13
2023-01-04T18:37:16.721Z,97439.22
2023-01-04T18:39:44.255Z,97421.72
2023-01-04T18:42:11.525Z,97427.81
2023-01-04T18:44:44.119Z,97426.41
2023-01-04T18:47:17.714Z,97430.97
2023-01-04T18:49:45.266Z,97421.31
2023-01-04T18:52:13.741Z,97423.88
2023-01-04T18:54:41.142Z,97415.47
2023-01-04T18:57:08.548Z,97440.84
2023-01-04T18:59:35.772Z,97423.19
2023-01-04T19:02:04.207Z,97407.00
2023-01-04T19:04:34.520Z,97396.31
2023-01-04T19:07:02.224Z,97391.59
2023-01-04T19:09:30.722Z,97401.84
2023-01-04T19:11:58.028Z,97412.44
2023-01-04T19:14:25.412Z,97406.63
2023-01-04T19:16:53.381Z,97401.59
2023-01-04T19:19:21.200Z,97400.84
2023-01-04T19:21:49.298Z,97415.78
2023-01-04T19:24:16.601Z,97415.25
2023-01-04T19:26:44.154Z,97412.66
2023-01-04T19:29:11.687Z,97403.66
2023-01-04T19:31:39.220Z,97409.81
2023-01-04T19:34:10.008Z,97388.41
2023-01-04T19:36:37.637Z,97375.59
2023-01-04T19:39:09.299Z,97371.34
2023-01-04T19:41:38.354Z,97390.28
2023-01-04T19:44:11.229Z,97387.63
2023-01-04T19:46:39.755Z,97371.59
2023-01-04T19:49:14.519Z,97384.47
2023-01-04T19:51:45.337Z,97380.53
2023-01-04T19:54:13.547Z,97357.09
2023-01-04T19:56:41.210Z,97348.84
2023-01-04T19:59:09.213Z,97350.97
2023-01-04T20:01:36.889Z,97343.75
2023-01-04T20:04:04.687Z,97342.19
2023-01-04T20:06:33.260Z,97336.69
2023-01-04T20:09:00.547Z,97363.03
2023-01-04T20:11:27.955Z,97370.41
2023-01-04T20:13:55.239Z,97371.53
2023-01-04T20:16:22.595Z,97369.41
2023-01-04T20:18:49.847Z,97372.59
2023-01-04T20:21:17.135Z,97369.94
2023-01-04T20:23:44.583Z,97352.28
2023-01-04T20:26:17.410Z,97358.84
2023-01-04T20:28:46.237Z,97362.50
2023-01-04T20:31:17.126Z,97358.28
2023-01-04T20:33:45.283Z,97353.78
2023-01-04T20:36:20.045Z,97350.34
2023-01-04T20:38:49.035Z,97351.03
2023-01-04T20:41:22.789Z,97351.28
2023-01-04T20:43:51.053Z,97349.22
2023-01-04T20:46:25.444Z,97350.63
2023-01-04T20:48:53.206Z,97347.75
2023-01-04T20:51:24.206Z,97334.81
2023-01-04T20:53:52.781Z,97334.84
2023-01-04T20:56:27.392Z,97340.63
2023-01-04T20:58:55.990Z,97336.34
2023-01-04T21:01:25.475Z,97340.88
2023-01-04T21:03:53.132Z,97329.28
2023-01-04T21:06:22.492Z,97320.53
2023-01-04T21:08:55.032Z,97319.25
2023-01-04T21:11:23.212Z,97302.63
2023-01-04T21:13:51.780Z,97299.19
2023-01-04T21:16:19.205Z,97279.69
2023-01-04T21:18:46.769Z,97272.94
2023-01-04T21:21:17.535Z,97276.09
2023-01-04T21:23:46.206Z,97278.47
2023-01-04T21:26:17.004Z,97282.69
2023-01-04T21:28:46.011Z,97281.16
2023-01-04T21:31:21.358Z,97280.13
2023-01-04T21:33:49.869Z,97278.22
2023-01-04T21:36:23.706Z,97268.72
2023-01-04T21:38:53.244Z,97261.06
2023-01-04T21:41:25.304Z,97255.03
2023-01-04T21:43:56.228Z,97258.22
2023-01-04T21:46:24.322Z,97249.78
2023-01-04T21:48:58.323Z,97238.22
2023-01-04T21:51:27.545Z,97228.25
2023-01-04T21:53:55.362Z,97234.53
2023-01-04T21:56:24.734Z,97225.66
2023-01-04T21:58:52.383Z,97216.66
2023-01-04T22:01:32.655Z,97212.44
2023-01-04T22:04:02.071Z,97220.59
2023-01-04T22:06:30.237Z,97231.72
2023-01-04T22:08:58.767Z,97219.56
2023-01-04T22:11:26.087Z,97231.16
2023-01-04T22:13:53.353Z,97240.84
2023-01-04T22:16:21.049Z,97235.94
2023-01-04T22:18:49.968Z,97228.00
2023-01-04T22:21:23.958Z,97223.81
2023-01-04T22:23:52.260Z,97213.00
2023-01-04T22:26:19.674Z,97213.59
2023-01-04T22:28:47.161Z,97213.78
2023-01-04T22:31:15.442Z,97221.69
2023-01-04T22:33:43.371Z,97218.59
2023-01-04T22:36:21.625Z,97209.03
2023-01-04T22:38:55.524Z,97208.56
2023-01-04T22:41:28.391Z,97207.25
2023-01-04T22:43:59.503Z,97198.56
2023-01-04T22:46:28.994Z,97184.34
2023-01-04T22:48:57.187Z,97198.81
2023-01-04T22:51:27.695Z,97179.88
2023-01-04T22:54:01.436Z,97189.34
2023-01-04T22:56:29.749Z,97181.94
2023-01-04T22:58:58.350Z,97195.63
2023-01-04T23:01:29.883Z,97170.63
2023-01-04T23:03:59.243Z,97175.09
2023-01-04T23:06:29.129Z,97171.63
2023-01-04T23:08:59.627Z,97167.97
2023-01-04T23:11:29.379Z,97170.34
2023-01-04T23:13:58.018Z,97151.59
2023-01-04T23:16:31.984Z,97158.44
2023-01-04T23:19:01.791Z,97158.22
2023-01-04T23:21:29.739Z,97161.63
2023-01-04T23:23:57.170Z,97147.38
2023-01-04T23:26:27.259Z,97149.25
2023-01-04T23:28:54.550Z,97141.09
2023-01-04T23:31:25.018Z,97133.19
2023-01-04T23:33:55.306Z,97126.59
2023-01-04T23:36:27.012Z,97131.34
2023-01-04T23:38:57.738Z,97134.75
2023-01-04T23:42:00.600Z,97134.75
2023-01-04T23:44:33.042Z,97125.03
2023-01-04T23:49:35.598Z,97132.13
2023-01-04T23:52:04.332Z,97134.75
2023-01-04T23:54:31.834Z,97136.09
2023-01-04T23:57:00.366Z,97125.53
2023-01-04T23:59:27.815Z,97122.13
